Time;durP1;ratioP1;P1;durP2;ratioP2;P2;SDS_P1;SDS_P2;PMS_P1;PMS_P2;Temp;Humidity;BMP_temperature;BMP_pressure;BME280_temperature;BME280_humidity;BME280_pressure;Samples;Min_cycle;Max_cycle;Signal;HPM_P1;HPM_P2
2023/12/16 00:00:20;;;;;;;24.42;14.80;;;;;;;4.57;96.65;101966.03;5050500;28;20557;-81
2023/12/16 00:02:45;;;;;;;22.55;15.15;;;;;;;4.27;96.27;101925.34;5051517;28;20031;-80
2023/12/16 00:05:11;;;;;;;28.38;16.83;;;;;;;4.42;96.12;101955.03;5051526;28;20120;-79
2023/12/16 00:07:36;;;;;;;22.23;15.70;;;;;;;4.35;96.30;101949.91;5050387;28;20082;-80
2023/12/16 00:10:02;;;;;;;22.67;15.23;;;;;;;4.39;96.25;101962.22;5049899;28;20449;-79
2023/12/16 00:12:27;;;;;;;26.38;16.05;;;;;;;4.43;96.24;101967.44;5048713;28;20025;-78
2023/12/16 00:14:53;;;;;;;20.67;14.90;;;;;;;4.30;96.13;101943.88;5050122;28;20111;-81
2023/12/16 00:17:19;;;;;;;21.77;15.98;;;;;;;4.43;95.75;101978.97;5047822;28;20088;-79
2023/12/16 00:19:45;;;;;;;23.25;16.33;;;;;;;4.26;96.33;101976.88;5050428;28;20079;-81
2023/12/16 00:22:10;;;;;;;23.40;16.35;;;;;;;4.23;96.46;101954.78;5050635;28;20441;-81
2023/12/16 00:24:36;;;;;;;22.80;16.48;;;;;;;4.23;96.38;101984.97;5050675;28;20044;-82
2023/12/16 00:27:01;;;;;;;27.75;17.05;;;;;;;4.09;96.59;101957.06;5051068;28;20028;-82
2023/12/16 00:29:27;;;;;;;28.02;16.52;;;;;;;4.20;97.25;101989.50;5051490;28;20037;-81
2023/12/16 00:31:52;;;;;;;25.60;17.23;;;;;;;4.04;97.15;101965.19;5051314;28;20396;-79
2023/12/16 00:34:18;;;;;;;25.05;16.95;;;;;;;4.14;97.54;101987.06;5050269;28;20170;-78
2023/12/16 00:36:44;;;;;;;27.20;17.80;;;;;;;4.04;97.72;101951.88;5059872;28;20025;-81
2023/12/16 00:39:09;;;;;;;27.10;18.88;;;;;;;3.97;97.22;101952.16;5062230;28;20028;-80
2023/12/16 00:41:35;;;;;;;30.33;18.42;;;;;;;4.04;98.21;101965.19;5059855;28;20029;-80
2023/12/16 00:44:01;;;;;;;23.77;17.98;;;;;;;4.22;98.10;101985.88;5058839;28;20625;-85
2023/12/16 00:46:26;;;;;;;28.17;19.50;;;;;;;3.99;97.89;101948.50;5050650;28;20028;-79
2023/12/16 00:48:52;;;;;;;24.52;18.88;;;;;;;4.17;97.96;101971.84;5049544;28;20155;-82
2023/12/16 00:51:20;;;;;;;28.77;17.98;;;;;;;3.91;98.26;101931.06;5049323;28;20025;-81
2023/12/16 00:53:45;;;;;;;25.77;19.20;;;;;;;3.91;98.43;101945.25;5049469;28;20119;-77
2023/12/16 00:56:11;;;;;;;20.55;14.98;;;;;;;4.09;98.68;101957.94;5049296;28;20475;-79
2023/12/16 00:58:36;;;;;;;26.50;17.73;;;;;;;3.68;98.15;101891.88;5049630;28;20071;-78
2023/12/16 01:01:02;;;;;;;24.95;16.70;;;;;;;3.92;98.40;101959.38;5048693;28;20028;-80
2023/12/16 01:03:27;;;;;;;23.73;17.23;;;;;;;3.89;98.84;101960.38;5049492;28;20064;-78
2023/12/16 01:05:53;;;;;;;24.52;16.17;;;;;;;3.88;99.23;101955.09;5049072;28;20158;-81
2023/12/16 01:08:19;;;;;;;25.27;16.27;;;;;;;3.99;99.17;101975.13;5049440;28;20386;-81
2023/12/16 01:10:44;;;;;;;21.20;14.82;;;;;;;4.00;99.46;101984.84;5048089;28;20099;-79
2023/12/16 01:13:10;;;;;;;21.98;15.07;;;;;;;3.88;99.72;101974.63;5048634;28;20060;-79
2023/12/16 01:15:36;;;;;;;22.75;15.23;;;;;;;3.86;99.58;101971.09;5049079;28;20026;-78
2023/12/16 01:18:02;;;;;;;22.25;14.77;;;;;;;3.91;99.42;101985.16;5048688;28;20021;-79
2023/12/16 01:20:27;;;;;;;18.85;13.73;;;;;;;3.85;99.69;101977.38;5049212;28;20103;-77
2023/12/16 01:22:53;;;;;;;21.67;13.38;;;;;;;3.74;100.00;101977.69;5049518;28;20451;-78
2023/12/16 01:25:18;;;;;;;17.15;13.48;;;;;;;3.89;100.00;101983.44;5048759;28;20043;-77
2023/12/16 01:27:44;;;;;;;20.70;15.07;;;;;;;3.90;100.00;101991.38;5053335;28;20528;-79
2023/12/16 01:30:10;;;;;;;19.08;14.93;;;;;;;3.92;100.00;101978.91;5051949;28;20078;-77
2023/12/16 01:32:35;;;;;;;21.30;14.43;;;;;;;3.92;100.00;101988.66;5048317;28;20043;-78
2023/12/16 01:35:01;;;;;;;19.77;13.05;;;;;;;3.87;100.00;101999.47;5047825;28;20040;-77
2023/12/16 01:37:26;;;;;;;22.30;13.45;;;;;;;3.90;100.00;101993.19;5048097;28;20025;-79
2023/12/16 01:39:52;;;;;;;20.38;13.57;;;;;;;3.83;100.00;101984.50;5045818;28;20036;-79
2023/12/16 01:42:18;;;;;;;22.05;13.57;;;;;;;3.87;100.00;102001.25;5047844;28;20107;-79
2023/12/16 01:44:43;;;;;;;20.25;14.80;;;;;;;3.89;100.00;102002.06;5047941;28;20477;-77
2023/12/16 01:47:09;;;;;;;21.20;13.93;;;;;;;3.85;100.00;102003.97;5028943;28;20040;-80
2023/12/16 01:49:37;;;;;;;19.23;12.50;;;;;;;3.86;100.00;102008.38;5047757;28;20037;-78
2023/12/16 01:52:04;;;;;;;19.85;14.18;;;;;;;3.76;100.00;101997.13;5048241;28;20031;-79
2023/12/16 01:54:32;;;;;;;21.15;13.90;;;;;;;3.85;99.79;102001.31;5047742;28;20060;-77
2023/12/16 01:57:00;;;;;;;19.52;12.93;;;;;;;3.76;100.00;101980.31;5047017;28;20024;-80
2023/12/16 01:59:27;;;;;;;20.23;13.30;;;;;;;3.79;99.84;101991.72;5047900;28;20029;-78
2023/12/16 02:01:54;;;;;;;17.75;11.55;;;;;;;3.72;99.43;102006.16;5047548;28;20029;-77
2023/12/16 02:04:20;;;;;;;21.27;13.00;;;;;;;3.68;99.84;101999.19;5047584;28;20032;-77
2023/12/16 02:06:45;;;;;;;20.05;12.70;;;;;;;3.75;99.42;102007.84;5047742;28;20033;-78
2023/12/16 02:09:14;;;;;;;24.27;14.10;;;;;;;3.76;99.95;101996.28;5047876;28;20060;-78
2023/12/16 02:11:39;;;;;;;18.33;12.05;;;;;;;3.72;99.60;101987.53;5048224;28;20025;-77
2023/12/16 02:14:06;;;;;;;16.55;12.63;;;;;;;3.69;99.59;102005.38;5047726;28;20115;-78
2023/12/16 02:16:31;;;;;;;15.60;11.48;;;;;;;3.64;99.20;102007.31;5048892;28;20146;-78
2023/12/16 02:18:57;;;;;;;14.30;11.80;;;;;;;3.63;99.64;102013.53;5051027;28;20048;-80
2023/12/16 02:21:23;;;;;;;21.67;12.43;;;;;;;3.52;100.00;101989.03;5048183;28;20111;-78
2023/12/16 02:23:48;;;;;;;18.33;12.18;;;;;;;3.65;99.87;102009.03;5045979;28;20129;-77
2023/12/16 02:26:14;;;;;;;20.35;12.73;;;;;;;3.66;100.00;102009.00;5047114;28;20049;-76
2023/12/16 02:28:39;;;;;;;19.20;12.38;;;;;;;3.66;100.00;102013.44;5047317;28;20025;-78
2023/12/16 02:31:05;;;;;;;15.60;12.32;;;;;;;3.69;100.00;102010.69;5047341;28;20487;-78
2023/12/16 02:33:31;;;;;;;15.65;11.25;;;;;;;3.57;100.00;102005.75;5047243;28;20056;-78
2023/12/16 02:35:56;;;;;;;18.95;12.45;;;;;;;3.50;100.00;102009.50;5047416;28;20111;-78
2023/12/16 02:38:22;;;;;;;25.63;12.68;;;;;;;3.46;100.00;102013.16;5045744;28;20075;-77
2023/12/16 02:40:48;;;;;;;16.05;11.63;;;;;;;3.60;100.00;102045.56;5047236;28;20029;-79
2023/12/16 02:43:14;;;;;;;17.10;10.80;;;;;;;3.58;100.00;102040.28;5047337;28;20396;-77
2023/12/16 02:45:39;;;;;;;22.63;12.20;;;;;;;3.65;100.00;102035.66;5046672;28;20037;-78
2023/12/16 02:48:05;;;;;;;18.33;10.85;;;;;;;3.60;100.00;102053.53;5047001;28;20028;-79
2023/12/16 02:50:31;;;;;;;15.25;10.77;;;;;;;3.54;100.00;102051.94;5046930;28;20040;-79
2023/12/16 02:52:57;;;;;;;12.85;10.07;;;;;;;3.53;100.00;102051.97;5047194;28;20029;-78
2023/12/16 02:55:22;;;;;;;13.63;10.77;;;;;;;3.54;100.00;102059.03;5046863;28;20033;-78
2023/12/16 02:57:48;;;;;;;16.80;10.65;;;;;;;3.57;100.00;102054.50;5051019;28;20029;-76
2023/12/16 03:00:14;;;;;;;13.52;10.63;;;;;;;3.55;100.00;102055.44;5051398;28;20118;-78
2023/12/16 03:02:40;;;;;;;15.90;11.10;;;;;;;3.54;100.00;102064.38;5050993;28;20090;-78
2023/12/16 03:05:05;;;;;;;18.55;10.73;;;;;;;3.56;100.00;102074.03;5051104;28;20072;-78
2023/12/16 03:07:32;;;;;;;15.70;11.80;;;;;;;3.48;100.00;102073.41;5053412;28;20504;-80
2023/12/16 03:09:57;;;;;;;16.52;10.77;;;;;;;3.48;100.00;102069.88;5053628;28;20112;-78
2023/12/16 03:12:24;;;;;;;13.68;11.40;;;;;;;3.48;100.00;102062.75;5050380;28;20112;-76
2023/12/16 03:14:50;;;;;;;15.45;11.43;;;;;;;3.51;100.00;102078.63;5050371;28;20029;-76
2023/12/16 03:17:16;;;;;;;17.45;11.98;;;;;;;3.36;100.00;102051.59;5050109;28;20055;-79
2023/12/16 03:19:41;;;;;;;17.55;12.13;;;;;;;3.19;100.00;102047.63;5050715;28;20040;-78
2023/12/16 03:22:08;;;;;;;14.75;11.73;;;;;;;3.44;100.00;102101.00;5050349;28;20036;-77
2023/12/16 03:24:33;;;;;;;16.88;12.98;;;;;;;3.40;100.00;102094.00;5050255;28;20045;-78
2023/12/16 03:26:58;;;;;;;15.75;12.20;;;;;;;3.37;100.00;102080.78;5050079;28;20425;-77
2023/12/16 03:29:24;;;;;;;17.38;11.43;;;;;;;3.37;100.00;102082.56;5050032;28;20054;-79
2023/12/16 03:31:50;;;;;;;20.48;13.27;;;;;;;3.28;100.00;102092.56;5050085;28;20036;-78
2023/12/16 03:34:15;;;;;;;23.02;11.68;;;;;;;3.35;100.00;102095.06;5050132;28;20048;-78
2023/12/16 03:36:41;;;;;;;19.58;11.05;;;;;;;3.33;100.00;102107.53;5050655;28;20060;-77
2023/12/16 03:39:07;;;;;;;19.17;11.43;;;;;;;3.34;100.00;102087.97;5049765;28;20433;-77
2023/12/16 03:41:34;;;;;;;18.80;11.40;;;;;;;3.34;100.00;102087.97;5050120;28;20651;-77
2023/12/16 03:44:00;;;;;;;19.33;12.25;;;;;;;3.37;100.00;102087.91;5049835;28;20033;-79
2023/12/16 03:46:26;;;;;;;17.52;10.95;;;;;;;3.34;100.00;102077.34;5048556;28;20094;-77
2023/12/16 03:48:52;;;;;;;13.60;10.25;;;;;;;3.21;100.00;102067.06;5050183;28;20525;-77
2023/12/16 03:51:21;;;;;;;18.33;12.15;;;;;;;3.32;100.00;102096.03;5050784;28;20060;-78
2023/12/16 03:53:46;;;;;;;15.68;11.32;;;;;;;3.10;100.00;102058.53;5050300;28;20045;-77
2023/12/16 03:56:12;;;;;;;15.93;11.13;;;;;;;3.25;100.00;102087.34;5050146;28;20056;-79
2023/12/16 03:58:37;;;;;;;12.43;10.35;;;;;;;3.27;100.00;102114.75;5055556;28;20021;-76
2023/12/16 04:01:04;;;;;;;16.15;11.15;;;;;;;3.28;100.00;102116.50;5052236;28;20037;-77
2023/12/16 04:03:29;;;;;;;14.80;10.02;;;;;;;3.25;100.00;102110.38;5050236;28;20523;-77
2023/12/16 04:05:55;;;;;;;14.25;10.57;;;;;;;3.15;100.00;102091.16;5049451;28;20072;-77
2023/12/16 04:08:21;;;;;;;15.05;11.02;;;;;;;3.27;100.00;102109.44;5049532;28;20032;-77
2023/12/16 04:10:46;;;;;;;13.90;11.00;;;;;;;3.19;100.00;102110.56;5049385;28;20465;-76
2023/12/16 04:13:14;;;;;;;13.13;11.35;;;;;;;3.29;100.00;102139.53;5049149;28;20090;-77
2023/12/16 04:15:39;;;;;;;14.90;10.98;;;;;;;3.33;100.00;102131.47;5049181;28;20473;-77
2023/12/16 04:18:05;;;;;;;16.60;10.55;;;;;;;3.36;100.00;102134.91;5048910;28;20036;-77
2023/12/16 04:20:30;;;;;;;13.93;10.18;;;;;;;3.32;100.00;102125.28;5049461;28;20068;-77
2023/12/16 04:22:56;;;;;;;14.60;10.93;;;;;;;3.40;100.00;102146.31;5049088;28;20591;-77
2023/12/16 04:25:21;;;;;;;13.98;11.70;;;;;;;3.36;100.00;102134.03;5049121;28;20056;-78
2023/12/16 04:27:47;;;;;;;15.07;9.95;;;;;;;3.39;100.00;102149.91;5049090;28;20032;-77
2023/12/16 04:30:12;;;;;;;14.45;11.63;;;;;;;3.39;100.00;102155.22;5048657;28;20032;-78
2023/12/16 04:32:38;;;;;;;19.23;12.02;;;;;;;3.36;100.00;102145.56;5049256;28;20405;-78
2023/12/16 04:35:04;;;;;;;15.73;11.57;;;;;;;3.37;100.00;102149.06;5048871;28;20128;-77
2023/12/16 04:37:30;;;;;;;16.00;11.32;;;;;;;3.24;100.00;102132.59;5049324;28;20029;-77
2023/12/16 04:39:55;;;;;;;15.95;10.73;;;;;;;3.37;100.00;102151.72;5049389;28;20024;-79
2023/12/16 04:42:22;;;;;;;14.70;11.48;;;;;;;3.43;100.00;102141.78;5050111;28;20123;-77
2023/12/16 04:44:47;;;;;;;21.45;12.15;;;;;;;3.40;100.00;102154.28;5048842;28;20104;-77
2023/12/16 04:47:13;;;;;;;21.17;12.00;;;;;;;3.40;100.00;102155.16;5050859;28;20063;-80
2023/12/16 04:49:40;;;;;;;17.23;12.52;;;;;;;3.32;100.00;102159.84;5055878;28;20033;-84
2023/12/16 04:52:05;;;;;;;17.92;11.98;;;;;;;3.23;100.00;102131.72;5050040;28;20078;-79
2023/12/16 04:54:31;;;;;;;20.95;12.90;;;;;;;3.39;100.00;102182.69;5048794;28;20497;-80
2023/12/16 04:56:56;;;;;;;24.52;13.98;;;;;;;3.46;100.00;102165.63;5048757;28;20033;-79
2023/12/16 04:59:22;;;;;;;34.53;17.65;;;;;;;3.54;100.00;102186.72;5048454;28;20032;-79
2023/12/16 05:01:47;;;;;;;35.42;16.83;;;;;;;3.50;100.00;102185.06;5048771;28;20049;-78
2023/12/16 05:04:13;;;;;;;28.40;15.65;;;;;;;3.52;100.00;102186.75;5048304;28;20028;-76
2023/12/16 05:06:38;;;;;;;19.15;12.98;;;;;;;3.47;100.00;102175.38;5048143;28;20032;-78
2023/12/16 05:09:10;;;;;;;21.55;13.73;;;;;;;3.51;100.00;102193.00;5048058;28;20021;-81
2023/12/16 05:11:36;;;;;;;20.63;13.70;;;;;;;3.46;100.00;102192.25;5048067;28;20094;-78
2023/12/16 05:14:01;;;;;;;24.60;16.08;;;;;;;3.57;100.00;102198.16;5048024;28;20036;-78
2023/12/16 05:16:28;;;;;;;19.40;13.52;;;;;;;3.53;100.00;102206.25;5048566;28;20029;-78
2023/12/16 05:18:54;;;;;;;25.25;13.88;;;;;;;3.62;100.00;102208.66;5047311;28;20036;-81
2023/12/16 05:21:20;;;;;;;22.75;13.48;;;;;;;3.69;100.00;102226.22;5048297;28;20041;-80
2023/12/16 05:23:46;;;;;;;28.27;16.50;;;;;;;3.67;100.00;102220.06;5048242;28;20032;-79
2023/12/16 05:26:11;;;;;;;21.83;14.90;;;;;;;3.62;100.00;102201.56;5048240;28;20044;-79
2023/12/16 05:28:37;;;;;;;24.42;14.88;;;;;;;3.68;100.00;102195.19;5049673;28;20108;-78
2023/12/16 05:31:03;;;;;;;19.10;14.18;;;;;;;3.65;100.00;102197.94;5049252;28;20027;-77
2023/12/16 05:33:28;;;;;;;22.85;13.90;;;;;;;3.76;100.00;102207.34;5048737;28;20554;-78
2023/12/16 05:35:54;;;;;;;26.05;15.32;;;;;;;3.79;100.00;102207.25;5048759;28;20033;-78
2023/12/16 05:38:19;;;;;;;23.27;15.00;;;;;;;3.83;100.00;102208.06;5053777;28;20025;-77
2023/12/16 05:40:45;;;;;;;26.17;16.85;;;;;;;3.81;100.00;102207.25;5053531;28;20064;-80
2023/12/16 05:43:10;;;;;;;21.02;14.85;;;;;;;3.84;100.00;102207.16;5046641;28;20028;-77
2023/12/16 05:45:36;;;;;;;25.88;14.40;;;;;;;3.88;100.00;102207.94;5047391;28;20041;-78
2023/12/16 05:48:01;;;;;;;27.75;15.85;;;;;;;3.87;100.00;102207.06;5047911;28;20025;-80
2023/12/16 05:50:27;;;;;;;26.67;16.50;;;;;;;3.75;100.00;102184.34;5047999;28;20044;-78
2023/12/16 05:52:52;;;;;;;31.30;18.55;;;;;;;3.91;100.00;102202.53;5047604;28;20501;-78
2023/12/16 05:55:18;;;;;;;32.78;17.92;;;;;;;3.88;100.00;102208.81;5047423;28;20033;-80
2023/12/16 05:57:43;;;;;;;21.88;14.73;;;;;;;3.83;100.00;102229.34;5047716;28;20028;-79
2023/12/16 06:00:09;;;;;;;25.70;16.27;;;;;;;3.86;100.00;102231.91;5047745;28;20084;-78
2023/12/16 06:02:35;;;;;;;25.77;17.10;;;;;;;3.88;100.00;102229.22;5047597;28;20036;-78
2023/12/16 06:05:01;;;;;;;32.55;17.73;;;;;;;3.85;100.00;102219.56;5047704;28;20029;-79
2023/12/16 06:07:26;;;;;;;26.48;16.67;;;;;;;3.90;100.00;102222.94;5047566;28;20033;-79
2023/12/16 06:09:52;;;;;;;25.90;15.32;;;;;;;3.75;100.00;102196.75;5047769;28;20412;-79
2023/12/16 06:12:17;;;;;;;30.67;15.35;;;;;;;3.89;100.00;102222.97;5047296;28;20021;-80
2023/12/16 06:14:43;;;;;;;26.25;16.33;;;;;;;3.84;100.00;102242.63;5047651;28;20041;-82
2023/12/16 06:17:08;;;;;;;26.00;16.77;;;;;;;3.87;100.00;102249.66;5047754;28;20087;-79
2023/12/16 06:19:34;;;;;;;30.92;18.33;;;;;;;3.85;100.00;102219.56;5047428;28;20425;-78
2023/12/16 06:21:59;;;;;;;25.85;16.48;;;;;;;4.01;100.00;102243.91;5048574;28;20055;-79
2023/12/16 06:24:25;;;;;;;26.33;15.35;;;;;;;3.96;100.00;102259.16;5048119;28;20037;-77
2023/12/16 06:26:51;;;;;;;25.50;15.35;;;;;;;3.86;100.00;102234.59;5047862;28;20048;-79
2023/12/16 06:29:17;;;;;;;25.80;14.95;;;;;;;3.95;100.00;102249.41;5050117;28;20443;-78
2023/12/16 06:31:42;;;;;;;25.98;15.23;;;;;;;3.91;100.00;102261.09;5055971;28;20104;-79
2023/12/16 06:34:08;;;;;;;33.28;16.45;;;;;;;3.97;100.00;102267.13;5052467;28;20043;-78
2023/12/16 06:36:33;;;;;;;21.55;14.50;;;;;;;3.92;100.00;102263.69;5051620;28;20025;-79
2023/12/16 06:38:59;;;;;;;19.45;15.40;;;;;;;4.07;100.00;102289.00;5051320;28;20064;-77
2023/12/16 06:41:24;;;;;;;24.70;15.05;;;;;;;4.01;100.00;102276.75;5051071;28;20412;-80
2023/12/16 06:43:50;;;;;;;22.42;14.15;;;;;;;4.17;100.00;102301.16;5051005;28;20036;-78
2023/12/16 06:46:19;;;;;;;27.48;15.57;;;;;;;4.09;100.00;102276.53;5051351;28;20087;-79
2023/12/16 06:48:45;;;;;;;25.23;15.52;;;;;;;4.11;100.00;102270.25;5051582;28;20036;-78
2023/12/16 06:51:10;;;;;;;23.30;15.60;;;;;;;4.22;100.00;102300.09;5048173;28;20017;-80
2023/12/16 06:53:36;;;;;;;24.85;15.32;;;;;;;4.06;99.50;102280.16;5050545;28;20091;-81
2023/12/16 06:56:02;;;;;;;27.90;16.58;;;;;;;4.23;99.55;102295.66;5050116;28;20075;-78
2023/12/16 06:58:28;;;;;;;30.00;17.58;;;;;;;4.16;100.00;102283.44;5050562;28;20037;-80
2023/12/16 07:00:53;;;;;;;28.63;15.73;;;;;;;4.20;99.71;102296.63;5050110;28;20057;-80
2023/12/16 07:03:19;;;;;;;26.92;16.33;;;;;;;4.13;99.36;102295.03;5050707;28;20079;-78
2023/12/16 07:05:44;;;;;;;21.38;14.77;;;;;;;4.12;99.53;102297.75;5050601;28;20028;-80
2023/12/16 07:08:12;;;;;;;19.42;13.98;;;;;;;4.09;99.78;102298.72;5051105;28;20123;-79
2023/12/16 07:10:37;;;;;;;20.50;15.05;;;;;;;4.09;99.83;102287.19;5051690;28;20025;-78
2023/12/16 07:13:02;;;;;;;20.20;14.50;;;;;;;4.20;99.59;102311.72;5051307;28;20040;-77
2023/12/16 07:15:28;;;;;;;23.77;15.60;;;;;;;4.29;100.00;102330.09;5051438;28;20025;-81
2023/12/16 07:17:53;;;;;;;25.98;15.07;;;;;;;4.27;100.00;102334.59;5051258;28;20556;-80
2023/12/16 07:20:19;;;;;;;37.28;20.83;;;;;;;4.28;99.96;102326.56;5054636;28;20085;-82
2023/12/16 07:22:44;;;;;;;41.13;23.13;;;;;;;4.16;99.84;102326.91;5055344;28;20032;-79
2023/12/16 07:25:10;;;;;;;28.08;17.20;;;;;;;4.12;99.44;102319.94;5049767;28;20134;-80
2023/12/16 07:27:35;;;;;;;28.73;18.48;;;;;;;4.16;99.85;102348.19;5050318;28;20021;-79
2023/12/16 07:30:02;;;;;;;27.02;17.75;;;;;;;4.06;100.00;102320.09;5050297;28;20040;-77
2023/12/16 07:32:28;;;;;;;33.97;19.98;;;;;;;4.06;100.00;102330.75;5050557;28;20029;-78
2023/12/16 07:34:53;;;;;;;30.65;17.45;;;;;;;4.18;100.00;102334.84;5049489;28;20040;-81
2023/12/16 07:37:19;;;;;;;34.53;18.48;;;;;;;4.28;100.00;102357.66;5050432;28;20598;-79
2023/12/16 07:39:44;;;;;;;33.58;19.50;;;;;;;4.21;100.00;102340.09;5049054;28;20037;-77
2023/12/16 07:42:11;;;;;;;40.33;18.48;;;;;;;4.22;100.00;102347.19;5049461;28;20033;-77
2023/12/16 07:44:37;;;;;;;32.50;19.50;;;;;;;4.13;100.00;102337.63;5049545;28;20040;-78
2023/12/16 07:47:02;;;;;;;37.08;19.17;;;;;;;4.33;100.00;102377.03;5049161;28;20389;-81
2023/12/16 07:49:28;;;;;;;48.63;23.30;;;;;;;4.32;100.00;102378.84;5049423;28;20033;-78
2023/12/16 07:51:54;;;;;;;41.95;22.27;;;;;;;4.34;100.00;102369.00;5049228;28;20028;-78
2023/12/16 07:54:27;;;;;;;27.95;16.90;;;;;;;4.26;100.00;102376.34;5046948;28;20045;-77
2023/12/16 07:56:53;;;;;;;30.90;19.90;;;;;;;4.32;100.00;102376.16;5049284;28;20017;-77
2023/12/16 07:59:19;;;;;;;40.38;23.08;;;;;;;4.31;100.00;102374.41;5049455;28;20040;-77
2023/12/16 08:01:49;;;;;;;35.20;20.08;;;;;;;4.33;100.00;102388.56;5050429;28;20028;-77
2023/12/16 08:04:15;;;;;;;30.58;19.63;;;;;;;4.34;100.00;102379.66;5048719;28;20044;-78
2023/12/16 08:06:40;;;;;;;43.03;21.17;;;;;;;4.24;100.00;102366.66;5050029;28;20033;-79
2023/12/16 08:09:06;;;;;;;31.60;18.08;;;;;;;4.24;100.00;102367.53;5049293;28;20536;-77
2023/12/16 08:11:32;;;;;;;31.02;20.52;;;;;;;4.36;100.00;102393.81;5053409;28;20017;-81
2023/12/16 08:13:58;;;;;;;31.42;18.75;;;;;;;4.13;99.31;102364.25;5051338;28;20082;-79
2023/12/16 08:16:23;;;;;;;33.72;19.90;;;;;;;4.24;99.51;102402.16;5049015;28;20037;-77
2023/12/16 08:18:49;;;;;;;31.10;19.45;;;;;;;4.10;99.77;102363.47;5048765;28;20126;-79
2023/12/16 08:21:21;;;;;;;28.85;19.17;;;;;;;4.31;100.00;102401.03;5049388;28;20032;-78
2023/12/16 08:23:46;;;;;;;37.38;22.33;;;;;;;4.26;99.80;102400.31;5049325;28;20558;-81
2023/12/16 08:26:12;;;;;;;38.95;20.75;;;;;;;4.25;99.56;102398.53;5049318;28;20072;-76
2023/12/16 08:28:40;;;;;;;55.17;25.10;;;;;;;4.38;100.00;102407.97;5048973;28;20076;-76
2023/12/16 08:31:09;;;;;;;41.75;23.40;;;;;;;4.40;100.00;102400.78;5049206;28;20025;-77
2023/12/16 08:33:35;;;;;;;49.25;21.98;;;;;;;4.50;100.00;102427.19;5048351;28;20501;-80
2023/12/16 08:36:00;;;;;;;40.60;22.42;;;;;;;4.48;100.00;102419.25;5048486;28;20619;-80
2023/12/16 08:38:26;;;;;;;37.30;21.85;;;;;;;4.57;100.00;102410.13;5048827;28;20025;-77
2023/12/16 08:40:54;;;;;;;34.55;21.00;;;;;;;4.50;100.00;102400.53;5049234;28;20632;-78
2023/12/16 08:43:19;;;;;;;41.03;23.10;;;;;;;4.61;100.00;102431.31;5049110;28;20029;-80
2023/12/16 08:45:45;;;;;;;39.22;22.75;;;;;;;4.53;99.95;102395.13;5049296;28;20033;-77
2023/12/16 08:48:10;;;;;;;36.90;21.95;;;;;;;4.68;99.75;102411.56;5049713;28;20496;-79
2023/12/16 08:50:36;;;;;;;42.45;24.20;;;;;;;4.48;98.98;102394.38;5049114;28;20056;-79
2023/12/16 08:53:01;;;;;;;34.53;19.60;;;;;;;4.59;99.07;102411.81;5049355;28;20031;-78
2023/12/16 08:55:27;;;;;;;37.88;22.85;;;;;;;4.64;99.24;102409.03;5049638;28;20025;-78
2023/12/16 08:57:53;;;;;;;36.47;20.40;;;;;;;4.48;98.99;102387.28;5049806;28;20037;-79
2023/12/16 09:00:19;;;;;;;33.90;21.13;;;;;;;4.57;98.67;102402.13;5052020;28;20033;-78
2023/12/16 09:02:45;;;;;;;33.28;20.92;;;;;;;4.69;98.64;102391.09;5052366;28;20086;-78
2023/12/16 09:05:10;;;;;;;33.00;21.38;;;;;;;4.72;99.41;102397.22;5049875;28;20025;-78
2023/12/16 09:07:36;;;;;;;36.08;22.00;;;;;;;4.55;99.43;102367.53;5048931;28;20037;-78
2023/12/16 09:10:02;;;;;;;36.13;21.48;;;;;;;4.77;99.51;102394.44;5049020;28;20108;-78
2023/12/16 09:12:27;;;;;;;42.78;23.58;;;;;;;4.85;99.73;102387.09;5048259;28;20650;-80
2023/12/16 09:14:53;;;;;;;42.22;23.90;;;;;;;4.85;99.74;102376.41;5048893;28;20021;-78
2023/12/16 09:17:18;;;;;;;35.22;20.67;;;;;;;4.96;99.03;102392.97;5048601;28;20537;-79
2023/12/16 09:19:44;;;;;;;36.17;22.00;;;;;;;4.97;98.66;102375.19;5048715;28;20082;-78
2023/12/16 09:22:09;;;;;;;34.08;22.08;;;;;;;4.84;98.17;102358.66;5049281;28;20201;-77
2023/12/16 09:24:35;;;;;;;40.70;23.13;;;;;;;5.03;98.19;102386.53;5048360;28;20021;-78
2023/12/16 09:27:00;;;;;;;44.38;24.52;;;;;;;5.07;97.39;102377.53;5048393;28;20041;-78
2023/12/16 09:29:27;;;;;;;34.47;21.90;;;;;;;5.06;97.74;102364.22;5048384;28;20025;-77
2023/12/16 09:31:52;;;;;;;40.05;22.60;;;;;;;5.15;98.02;102380.81;5079763;28;20037;-78
2023/12/16 09:34:18;;;;;;;43.92;23.35;;;;;;;5.26;98.04;102378.69;5048213;28;20033;-79
2023/12/16 09:36:43;;;;;;;39.00;22.42;;;;;;;5.32;97.79;102378.47;5045423;28;20052;-78
2023/12/16 09:39:10;;;;;;;39.45;22.95;;;;;;;5.34;97.64;102368.66;5045789;28;20033;-78
2023/12/16 09:41:44;;;;;;;33.22;21.05;;;;;;;5.29;97.18;102351.91;5045467;28;20059;-79
2023/12/16 09:44:13;;;;;;;36.58;19.70;;;;;;;5.36;96.59;102379.25;5046005;28;20029;-82
2023/12/16 09:46:40;;;;;;;34.50;20.98;;;;;;;5.34;96.07;102376.66;5046757;28;20041;-79
2023/12/16 09:49:05;;;;;;;32.55;19.38;;;;;;;5.32;96.04;102377.63;5013465;28;20484;-78
2023/12/16 09:51:31;;;;;;;34.92;20.30;;;;;;;5.30;95.39;102384.78;5047167;28;20073;-77
2023/12/16 09:53:56;;;;;;;38.60;22.40;;;;;;;5.28;95.68;102395.53;5048719;28;20539;-81
2023/12/16 09:56:22;;;;;;;33.58;20.67;;;;;;;5.20;96.19;102373.53;5046263;28;20048;-79
2023/12/16 09:58:51;;;;;;;39.10;25.25;;;;;;;5.24;96.35;102359.19;5045200;28;20504;-79
2023/12/16 10:01:17;;;;;;;34.05;20.95;;;;;;;5.34;96.59;102368.66;5045080;28;20173;-76
2023/12/16 10:03:46;;;;;;;34.35;22.23;;;;;;;5.37;97.04;102371.22;5045777;28;20036;-78
2023/12/16 10:06:12;;;;;;;34.67;20.85;;;;;;;5.37;95.69;102389.91;5046412;28;20032;-83
2023/12/16 10:08:41;;;;;;;37.58;21.45;;;;;;;5.45;95.76;102390.53;5048393;28;20516;-78
2023/12/16 10:11:07;;;;;;;41.08;22.67;;;;;;;5.39;95.60;102385.38;5047773;28;20405;-78
2023/12/16 10:13:53;;;;;;;35.38;23.70;;;;;;;5.52;95.61;102390.31;5045813;28;20120;-79
2023/12/16 10:16:21;;;;;;;32.75;22.67;;;;;;;5.57;96.56;102394.59;5047097;28;20036;-81
2023/12/16 10:18:54;;;;;;;40.75;24.15;;;;;;;5.62;96.09;102394.44;5047787;28;21092;-79
2023/12/16 10:21:28;;;;;;;43.15;24.08;;;;;;;5.60;95.64;102389.16;5048318;28;20044;-74
2023/12/16 10:24:00;;;;;;;36.60;22.25;;;;;;;5.66;95.36;102399.63;5048159;28;20025;-79
2023/12/16 10:26:26;;;;;;;;;;;;;;;5.70;95.08;102395.06;5046492;28;20106;-75
2023/12/16 10:28:53;;;;;;;42.22;22.67;;;;;;;5.75;94.97;102385.13;5047543;28;20304;-78
2023/12/16 10:31:21;;;;;;;39.05;22.73;;;;;;;5.79;95.10;102384.94;5047147;28;20021;-76
2023/12/16 10:33:49;;;;;;;37.85;21.05;;;;;;;5.82;94.96;102387.53;5049406;28;20056;-82
2023/12/16 10:36:15;;;;;;;37.45;22.98;;;;;;;5.75;93.25;102390.47;5052296;28;20393;-80
2023/12/16 10:38:41;;;;;;;33.67;20.60;;;;;;;5.88;93.00;102405.16;5050863;28;20098;-79
2023/12/16 10:41:08;;;;;;;36.38;20.02;;;;;;;5.85;92.67;102402.56;5052771;28;20415;-80
2023/12/16 10:43:34;;;;;;;29.75;18.77;;;;;;;5.65;91.61;102375.66;5064005;28;20056;-83
2023/12/16 10:46:05;;;;;;;33.53;20.33;;;;;;;5.82;91.11;102400.00;5057733;28;20029;-83
2023/12/16 10:48:35;;;;;;;35.60;22.30;;;;;;;5.80;91.30;102397.38;5047766;28;20520;-83
2023/12/16 10:51:02;;;;;;;38.67;21.20;;;;;;;5.82;89.58;102400.88;5050002;28;20166;-81
2023/12/16 10:53:37;;;;;;;31.88;19.33;;;;;;;5.77;89.56;102388.59;5048087;28;20028;-81
2023/12/16 10:56:17;;;;;;;36.67;21.30;;;;;;;5.78;90.31;102395.69;5046491;28;20116;-76
2023/12/16 10:58:51;;;;;;;33.85;19.13;;;;;;;5.88;90.28;102390.00;5047312;28;20033;-79
2023/12/16 11:01:20;;;;;;;29.63;18.58;;;;;;;5.95;89.92;102390.69;5047027;28;20044;-77
2023/12/16 11:03:54;;;;;;;30.15;17.38;;;;;;;5.83;88.68;102380.38;5046778;28;20032;-78
2023/12/16 11:06:39;;;;;;;31.40;18.50;;;;;;;5.95;88.18;102409.38;5047181;28;20056;-75